Murphys Corner, Arkansas
Current Conditions -  °F | °C
As of 10:56 PM on Friday 19 Dec 2014 (Local Time) from KM19 Reporting Station
Overcast Overcast  
Wind Chill: 35°   Ceiling: 6000
Heat Index: 39°   Visibility: 10mi
Dew Point: 36°   Wind: 6mph
Humidity: 89%   Direction: 30°NNE
Pressure: 30.27"   Gusts: NA
Location:  35.5678°N, 91.2073°W
Report Text: KM19 200456Z AUTO 03005KT 10SM SCT047 OVC060 04/02 A3027 RMK AO2 T00380022 SLP252
Loading
Personal Weather Stations






























Interactive Weather Map New forecast layout! Learn more

10-Day Weather Forecast

Advertisements
Track Severe Weather on mobile